createdAt,value
2019-04-05T00:02:23.355Z,7.23
2019-04-05T00:04:53.198Z,7.20
2019-04-05T00:07:23.290Z,6.33
2019-04-05T00:09:53.128Z,7.50
2019-04-05T00:12:23.403Z,7.10
2019-04-05T00:14:53.484Z,6.60
2019-04-05T00:17:23.206Z,5.23
2019-04-05T00:19:53.014Z,5.20
2019-04-05T00:22:22.735Z,5.33
2019-04-05T00:24:52.483Z,4.50
2019-04-05T00:27:22.138Z,5.53
2019-04-05T00:30:11.274Z,5.90
2019-04-05T00:32:41.026Z,5.47
2019-04-05T00:35:10.850Z,5.30
2019-04-05T00:37:40.881Z,4.20
2019-04-05T00:40:11.308Z,4.67
2019-04-05T00:42:41.049Z,4.60
2019-04-05T00:45:11.434Z,4.90
2019-04-05T00:47:41.254Z,5.50
2019-04-05T00:50:11.783Z,5.13
2019-04-05T00:52:41.600Z,5.20
2019-04-05T00:55:11.429Z,4.90
2019-04-05T00:57:41.255Z,4.77
2019-04-05T01:00:13.063Z,5.37
2019-04-05T01:02:42.818Z,5.07
2019-04-05T01:05:12.667Z,4.50
2019-04-05T01:07:42.470Z,6.33
2019-04-05T01:10:12.586Z,5.60
2019-04-05T01:12:42.702Z,5.00
2019-04-05T01:15:12.749Z,5.13
2019-04-05T01:17:42.684Z,5.40
2019-04-05T01:20:13.146Z,5.50
2019-04-05T01:22:44.475Z,5.23
2019-04-05T01:25:14.854Z,4.90
2019-04-05T01:27:48.222Z,5.77
2019-04-05T01:30:17.746Z,5.30
2019-04-05T01:32:48.436Z,5.10
2019-04-05T01:35:18.534Z,4.60
2019-04-05T01:37:48.472Z,4.43
2019-04-05T01:40:18.426Z,4.20
2019-04-05T01:42:48.533Z,4.20
2019-04-05T01:45:18.915Z,4.43
2019-04-05T01:47:49.275Z,4.70
2019-04-05T01:50:19.369Z,4.50
2019-04-05T01:52:49.271Z,3.77
2019-04-05T01:55:19.358Z,4.00
2019-04-05T01:57:49.881Z,3.90
2019-04-05T02:00:19.729Z,4.00
2019-04-05T02:02:50.733Z,3.53
2019-04-05T02:05:21.626Z,3.87
2019-04-05T02:07:51.762Z,3.43
2019-04-05T02:10:21.730Z,2.77
2019-04-05T02:12:51.588Z,3.40
2019-04-05T02:15:26.713Z,2.90
2019-04-05T02:17:57.227Z,2.63
2019-04-05T02:20:27.981Z,2.90
2019-04-05T02:22:57.817Z,2.50
2019-04-05T02:25:27.654Z,2.53
2019-04-05T02:27:57.669Z,2.80
2019-04-05T02:30:28.109Z,2.60
2019-04-05T02:32:57.973Z,2.00
2019-04-05T02:35:27.819Z,2.13
2019-04-05T02:37:57.806Z,2.70
2019-04-05T02:40:28.358Z,2.20
2019-04-05T02:43:00.039Z,2.43
2019-04-05T02:45:33.744Z,2.10
2019-04-05T02:48:06.680Z,3.23
2019-04-05T02:50:39.513Z,4.77
2019-04-05T02:53:11.721Z,3.90
2019-04-05T02:55:42.779Z,3.47
2019-04-05T02:58:13.931Z,2.20
2019-04-05T03:00:44.562Z,2.33
2019-04-05T03:03:16.458Z,2.20
2019-04-05T03:05:47.554Z,1.77
2019-04-05T03:08:18.775Z,2.00
2019-04-05T03:11:20.269Z,2.10
2019-04-05T03:13:55.422Z,2.37
2019-04-05T03:16:40.697Z,2.27
2019-04-05T03:19:20.792Z,1.90
2019-04-05T03:21:53.967Z,1.80
2019-04-05T03:24:27.538Z,1.97
2019-04-05T03:27:04.537Z,2.00
2019-04-05T03:29:35.610Z,2.33
2019-04-05T03:32:05.888Z,2.03
2019-04-05T03:34:36.840Z,1.90
2019-04-05T03:37:07.161Z,2.17
2019-04-05T03:39:38.045Z,2.10
2019-04-05T03:42:08.663Z,2.17
2019-04-05T03:44:38.868Z,2.13
2019-04-05T03:47:09.639Z,2.50
2019-04-05T03:49:40.025Z,2.63
2019-04-05T03:52:10.436Z,2.40
2019-04-05T03:54:40.591Z,2.60
2019-04-05T03:57:10.734Z,3.03
2019-04-05T03:59:40.830Z,3.07
2019-04-05T04:02:11.158Z,2.37
2019-04-05T04:04:41.268Z,2.53
2019-04-05T04:07:11.580Z,2.60
2019-04-05T04:09:41.976Z,2.00
2019-04-05T04:12:11.826Z,4.40
2019-04-05T04:14:41.920Z,3.57
2019-04-05T04:17:13.530Z,2.87
2019-04-05T04:19:44.661Z,2.87
2019-04-05T04:22:23.871Z,1.70
2019-04-05T04:24:53.986Z,2.10
2019-04-05T04:27:24.869Z,2.50
2019-04-05T04:29:54.708Z,2.03
2019-04-05T04:32:24.670Z,2.77
2019-04-05T04:34:55.134Z,2.50
2019-04-05T04:37:26.052Z,2.80
2019-04-05T04:39:55.998Z,2.90
2019-04-05T04:42:26.721Z,2.57
2019-04-05T04:45:10.952Z,2.63
2019-04-05T04:47:29.435Z,3.40
2019-04-05T04:50:00.350Z,3.10
2019-04-05T04:52:31.698Z,3.03
2019-04-05T04:55:02.493Z,3.40
2019-04-05T04:57:32.765Z,3.80
2019-04-05T05:00:02.966Z,3.20
2019-04-05T05:02:32.920Z,3.30
2019-04-05T05:05:03.903Z,2.97
2019-04-05T05:07:33.822Z,3.10
2019-04-05T05:10:04.072Z,2.83
2019-04-05T05:12:34.677Z,3.30
2019-04-05T05:15:05.314Z,2.77
2019-04-05T05:17:41.234Z,3.30
2019-04-05T05:20:11.597Z,3.30
2019-04-05T05:22:41.543Z,3.03
2019-04-05T05:25:11.772Z,3.17
2019-04-05T05:27:41.994Z,2.90
2019-04-05T05:30:12.206Z,2.60
2019-04-05T05:32:42.254Z,2.57
2019-04-05T05:35:12.371Z,3.03
2019-04-05T05:37:42.692Z,3.10
2019-04-05T05:40:12.748Z,2.97
2019-04-05T05:42:43.235Z,3.23
2019-04-05T05:45:13.520Z,2.87
2019-04-05T05:47:51.785Z,3.40
2019-04-05T05:50:15.350Z,3.60
2019-04-05T05:52:45.777Z,3.50
2019-04-05T05:55:15.698Z,3.57
2019-04-05T05:57:45.805Z,3.17
2019-04-05T06:00:17.378Z,2.90
2019-04-05T06:02:48.549Z,3.17
2019-04-05T06:05:18.982Z,2.90
2019-04-05T06:07:49.359Z,4.33
2019-04-05T06:10:19.223Z,3.13
2019-04-05T06:12:49.442Z,4.87
2019-04-05T06:15:19.829Z,3.67
2019-04-05T06:18:04.604Z,4.10
2019-04-05T06:20:27.314Z,3.57
2019-04-05T06:22:57.474Z,4.77
2019-04-05T06:25:27.306Z,4.53
2019-04-05T06:27:59.652Z,4.33
2019-04-05T06:30:29.183Z,4.60
2019-04-05T06:32:59.457Z,4.30
2019-04-05T06:35:29.581Z,4.70
2019-04-05T06:37:59.693Z,4.97
2019-04-05T06:40:48.633Z,5.43
2019-04-05T06:43:19.133Z,5.07
2019-04-05T06:45:49.365Z,5.53
2019-04-05T06:48:19.893Z,4.83
2019-04-05T06:50:49.853Z,4.20
2019-04-05T06:53:19.959Z,4.30
2019-04-05T06:55:49.801Z,4.87
2019-04-05T06:58:20.455Z,4.20
2019-04-05T07:00:57.174Z,4.57
2019-04-05T07:03:22.233Z,4.33
2019-04-05T07:05:52.360Z,4.30
2019-04-05T07:08:22.762Z,5.50
2019-04-05T07:10:52.889Z,5.03
2019-04-05T07:13:23.003Z,5.40
2019-04-05T07:15:53.145Z,6.10
2019-04-05T07:18:34.189Z,6.97
2019-04-05T07:20:57.732Z,6.93
2019-04-05T07:23:26.781Z,7.33
2019-04-05T07:25:57.159Z,8.47
2019-04-05T07:28:27.063Z,7.30
2019-04-05T07:30:56.918Z,9.43
2019-04-05T07:33:26.955Z,9.60
2019-04-05T07:35:56.838Z,11.50
2019-04-05T07:38:26.714Z,12.00
2019-04-05T07:40:56.583Z,11.30
2019-04-05T07:43:26.973Z,12.70
2019-04-05T07:45:57.167Z,12.33
2019-04-05T07:48:27.084Z,12.33
2019-04-05T07:50:57.006Z,12.53
2019-04-05T07:53:27.383Z,13.37
2019-04-05T07:55:57.534Z,12.00
2019-04-05T07:58:29.220Z,11.97
2019-04-05T08:00:59.367Z,11.53
2019-04-05T08:03:29.551Z,10.07
2019-04-05T08:05:59.574Z,9.60
2019-04-05T08:08:56.094Z,9.30
2019-04-05T08:11:27.517Z,10.00
2019-04-05T08:14:00.155Z,8.70
2019-04-05T08:16:30.068Z,8.17
2019-04-05T08:18:59.931Z,8.10
2019-04-05T08:21:29.799Z,11.13
2019-04-05T08:23:59.981Z,10.53
2019-04-05T08:26:30.647Z,12.27
2019-04-05T08:29:00.908Z,11.00
2019-04-05T08:31:31.103Z,10.33
2019-04-05T08:34:01.547Z,11.00
2019-04-05T08:36:32.749Z,11.80
2019-04-05T08:39:05.616Z,12.30
2019-04-05T08:41:36.071Z,10.50
2019-04-05T08:44:06.423Z,12.30
2019-04-05T08:46:36.406Z,10.73
2019-04-05T08:49:10.870Z,12.07
2019-04-05T08:51:38.801Z,12.13
2019-04-05T08:54:09.507Z,12.27
2019-04-05T08:56:39.685Z,12.60
2019-04-05T08:59:10.005Z,12.10
2019-04-05T09:01:40.946Z,11.37
2019-04-05T09:04:11.173Z,10.33
2019-04-05T09:06:41.115Z,11.10
2019-04-05T09:09:11.655Z,11.50
2019-04-05T09:11:43.047Z,10.43
2019-04-05T09:14:13.480Z,11.10
2019-04-05T09:16:43.379Z,10.90
2019-04-05T09:19:23.592Z,11.30
2019-04-05T09:21:45.907Z,10.90
2019-04-05T09:24:16.907Z,10.90
2019-04-05T09:26:47.034Z,10.10
2019-04-05T09:29:16.925Z,10.30
2019-04-05T09:31:46.795Z,9.57
2019-04-05T09:34:16.997Z,9.97
2019-04-05T09:36:47.699Z,8.73
2019-04-05T09:39:17.795Z,7.90
2019-04-05T09:41:47.783Z,6.80
2019-04-05T09:44:18.213Z,6.87
2019-04-05T09:46:51.146Z,7.13
2019-04-05T09:49:19.926Z,6.70
2019-04-05T09:51:50.175Z,6.03
2019-04-05T09:54:20.418Z,5.80
2019-04-05T09:56:50.831Z,5.60
2019-04-05T09:59:20.938Z,6.23
2019-04-05T10:01:51.368Z,6.90
2019-04-05T10:04:21.354Z,6.17
2019-04-05T10:06:51.778Z,5.40
2019-04-05T10:09:22.171Z,6.20
2019-04-05T10:11:52.363Z,4.90
2019-04-05T10:14:22.201Z,5.23
2019-04-05T10:16:52.150Z,4.93
2019-04-05T10:19:22.393Z,6.17
2019-04-05T10:21:53.193Z,6.20
2019-04-05T10:24:23.239Z,10.30
2019-04-05T10:26:53.467Z,6.67
2019-04-05T10:29:24.478Z,6.50
2019-04-05T10:31:55.294Z,6.17
2019-04-05T10:34:26.145Z,7.00
2019-04-05T10:36:56.643Z,6.57
2019-04-05T10:39:26.593Z,7.97
2019-04-05T10:42:03.495Z,7.03
2019-04-05T10:44:29.042Z,6.80
2019-04-05T10:47:00.011Z,8.10
2019-04-05T10:49:29.959Z,8.53
2019-04-05T10:52:00.744Z,8.10
2019-04-05T10:54:31.364Z,8.63
2019-04-05T10:57:01.617Z,9.03
2019-04-05T10:59:32.322Z,9.90
2019-04-05T11:02:04.308Z,8.23
2019-04-05T11:04:34.727Z,11.60
2019-04-05T11:07:04.899Z,11.03
2019-04-05T11:09:35.507Z,9.60
2019-04-05T11:12:05.415Z,10.83
2019-04-05T11:14:35.938Z,9.77
2019-04-05T11:17:05.886Z,9.80
2019-04-05T11:19:36.659Z,9.93
2019-04-05T11:22:06.551Z,9.93
2019-04-05T11:24:36.945Z,10.27
2019-04-05T11:27:07.145Z,9.80
2019-04-05T11:29:37.344Z,10.63
2019-04-05T11:32:07.447Z,9.77
2019-04-05T11:34:37.462Z,10.90
2019-04-05T11:37:07.679Z,9.83
2019-04-05T11:39:38.687Z,11.80
2019-04-05T11:42:08.906Z,10.87
2019-04-05T11:44:40.951Z,11.57
2019-04-05T11:47:10.844Z,11.63
2019-04-05T11:49:42.367Z,11.67
2019-04-05T11:52:12.808Z,11.90
2019-04-05T11:54:53.003Z,12.93
2019-04-05T11:57:23.482Z,12.53
2019-04-05T11:59:53.887Z,12.60
2019-04-05T12:02:27.786Z,10.93
2019-04-05T12:05:00.021Z,12.17
2019-04-05T12:07:29.898Z,10.73
2019-04-05T12:10:00.002Z,11.00
2019-04-05T12:12:30.747Z,11.37
2019-04-05T12:15:00.998Z,11.90
2019-04-05T12:17:31.259Z,10.50
2019-04-05T12:20:02.825Z,10.20
2019-04-05T12:22:34.947Z,11.20
2019-04-05T12:25:05.435Z,11.23
2019-04-05T12:27:35.392Z,10.90
2019-04-05T12:30:07.438Z,11.60
2019-04-05T12:32:41.297Z,10.90
2019-04-05T12:35:09.184Z,10.23
2019-04-05T12:37:49.676Z,12.17
2019-04-05T12:40:11.959Z,12.93
2019-04-05T12:42:43.728Z,12.10
2019-04-05T12:45:15.337Z,12.10
2019-04-05T12:47:46.246Z,12.90
2019-04-05T12:50:16.522Z,13.27
2019-04-05T12:52:46.798Z,12.60
2019-04-05T12:55:16.989Z,12.73
2019-04-05T12:57:48.502Z,12.43
2019-04-05T13:00:19.034Z,13.37
2019-04-05T13:02:50.350Z,12.47
2019-04-05T13:05:21.739Z,13.17
2019-04-05T13:07:52.599Z,13.70
2019-04-05T13:10:26.068Z,12.83
2019-04-05T13:12:57.776Z,12.90
2019-04-05T13:15:27.810Z,13.83
2019-04-05T13:18:00.457Z,12.87
2019-04-05T13:20:30.364Z,12.50
2019-04-05T13:23:04.283Z,11.43
2019-04-05T13:25:32.450Z,12.50
2019-04-05T13:28:12.847Z,12.70
2019-04-05T13:30:34.123Z,12.00
2019-04-05T13:33:04.132Z,10.80
2019-04-05T13:35:34.001Z,10.33
2019-04-05T13:38:03.899Z,10.27
2019-04-05T13:40:33.839Z,11.47
2019-04-05T13:43:04.385Z,11.27
2019-04-05T13:45:34.298Z,10.30
2019-04-05T13:48:08.584Z,10.33
2019-04-05T13:50:36.299Z,10.70
2019-04-05T13:53:06.379Z,10.50
2019-04-05T13:55:38.505Z,9.60
2019-04-05T13:58:11.251Z,10.30
2019-04-05T14:00:41.033Z,10.30
2019-04-05T14:03:10.884Z,11.03
2019-04-05T14:05:41.350Z,10.87
2019-04-05T14:08:12.259Z,11.27
2019-04-05T14:10:42.698Z,10.43
2019-04-05T14:13:13.049Z,11.50
2019-04-05T14:15:44.307Z,10.40
2019-04-05T14:18:15.428Z,10.67
2019-04-05T14:20:49.529Z,11.20
2019-04-05T14:23:17.540Z,9.87
2019-04-05T14:25:47.438Z,10.90
2019-04-05T14:28:17.526Z,11.37
2019-04-05T14:30:47.739Z,11.53
2019-04-05T14:33:17.665Z,11.40
2019-04-05T14:35:47.581Z,11.67
2019-04-05T14:38:17.423Z,11.40
2019-04-05T14:40:49.074Z,12.33
2019-04-05T14:43:21.241Z,12.17
2019-04-05T14:45:50.814Z,12.47
2019-04-05T14:48:21.482Z,11.60
2019-04-05T14:50:51.694Z,11.47
2019-04-05T14:53:32.272Z,11.33
2019-04-05T14:56:02.798Z,11.27
2019-04-05T14:58:33.199Z,11.50
2019-04-05T15:01:03.570Z,13.37
2019-04-05T15:03:33.413Z,11.03
2019-04-05T15:06:06.436Z,12.03
2019-04-05T15:08:36.576Z,11.70
2019-04-05T15:11:06.976Z,12.50
2019-04-05T15:13:37.098Z,11.30
2019-04-05T15:16:06.954Z,11.10
2019-04-05T15:18:36.803Z,11.60
2019-04-05T15:21:06.695Z,10.10
2019-04-05T15:23:36.742Z,10.17
2019-04-05T15:26:06.859Z,11.00
2019-04-05T15:28:38.999Z,11.80
2019-04-05T15:31:08.838Z,10.70
2019-04-05T15:33:39.758Z,10.80
2019-04-05T15:36:09.731Z,9.40
2019-04-05T15:38:39.646Z,9.07
2019-04-05T15:41:09.830Z,9.90
2019-04-05T15:43:40.509Z,10.30
2019-04-05T15:46:10.556Z,10.70
2019-04-05T15:48:40.407Z,10.83
2019-04-05T15:51:11.118Z,11.13
2019-04-05T15:53:41.031Z,10.50
2019-04-05T15:56:11.175Z,13.80
2019-04-05T15:58:41.051Z,12.27
2019-04-05T16:01:11.477Z,11.73
2019-04-05T16:03:41.894Z,11.03
2019-04-05T16:06:11.874Z,12.77
2019-04-05T16:08:41.759Z,11.93
2019-04-05T16:11:11.646Z,12.80
2019-04-05T16:13:41.515Z,13.13
2019-04-05T16:16:12.023Z,13.53
2019-04-05T16:18:43.650Z,13.83
2019-04-05T16:21:14.388Z,14.00
2019-04-05T16:23:44.685Z,13.13
2019-04-05T16:26:14.565Z,12.50
2019-04-05T16:28:44.981Z,11.07
2019-04-05T16:31:15.126Z,13.03
2019-04-05T16:33:45.507Z,12.40
2019-04-05T16:36:15.740Z,14.00
2019-04-05T16:38:45.628Z,12.37
2019-04-05T16:41:16.059Z,11.23
2019-04-05T16:43:45.947Z,11.37
2019-04-05T16:46:15.920Z,12.40
2019-04-05T16:48:45.826Z,12.20
2019-04-05T16:51:16.629Z,11.90
2019-04-05T16:54:03.396Z,12.57
2019-04-05T16:56:33.604Z,12.70
2019-04-05T16:59:03.844Z,11.33
2019-04-05T17:01:33.841Z,13.40
2019-04-05T17:04:04.214Z,10.90
2019-04-05T17:06:34.495Z,11.13
2019-04-05T17:09:06.290Z,11.73
2019-04-05T17:11:36.531Z,11.63
2019-04-05T17:14:06.371Z,11.70
2019-04-05T17:16:36.497Z,12.30
2019-04-05T17:19:06.624Z,11.90
2019-04-05T17:21:38.850Z,10.93
2019-04-05T17:24:10.120Z,10.83
2019-04-05T17:26:40.567Z,11.20
2019-04-05T17:29:10.954Z,12.20
2019-04-05T17:31:41.339Z,10.30
2019-04-05T17:34:11.513Z,10.37
2019-04-05T17:36:42.226Z,11.03
2019-04-05T17:39:12.160Z,11.83
2019-04-05T17:41:42.580Z,13.03
2019-04-05T17:44:12.692Z,13.17
2019-04-05T17:46:43.520Z,12.77
2019-04-05T17:49:13.459Z,13.80
2019-04-05T17:51:43.619Z,11.90
2019-04-05T17:54:15.062Z,12.60
2019-04-05T17:56:45.236Z,12.30
2019-04-05T17:59:15.584Z,12.50
2019-04-05T18:01:45.810Z,12.57
2019-04-05T18:04:15.746Z,12.97
2019-04-05T18:06:45.701Z,12.10
2019-04-05T18:09:27.189Z,12.40
2019-04-05T18:11:56.743Z,12.17
2019-04-05T18:14:26.802Z,10.53
2019-04-05T18:17:16.163Z,11.03
2019-04-05T18:19:46.546Z,9.40
2019-04-05T18:22:16.671Z,9.97
2019-04-05T18:24:46.765Z,11.00
2019-04-05T18:27:19.057Z,10.27
2019-04-05T18:29:51.976Z,12.70
2019-04-05T18:32:22.358Z,11.80
2019-04-05T18:34:52.990Z,10.90
2019-04-05T18:37:22.936Z,11.60
2019-04-05T18:39:53.815Z,11.30
2019-04-05T18:42:23.918Z,11.10
2019-04-05T18:44:54.038Z,12.63
2019-04-05T18:47:24.663Z,11.80
2019-04-05T18:50:02.969Z,12.60
2019-04-05T18:52:26.611Z,13.20
2019-04-05T18:54:57.633Z,13.57
2019-04-05T18:57:27.801Z,12.33
2019-04-05T18:59:57.989Z,11.97
2019-04-05T19:02:28.130Z,12.00
2019-04-05T19:04:58.047Z,14.30
2019-04-05T19:07:28.003Z,12.73
2019-04-05T19:09:57.871Z,13.73
2019-04-05T19:12:27.767Z,13.50
2019-04-05T19:14:57.928Z,14.63
2019-04-05T19:17:27.953Z,12.33
2019-04-05T19:19:57.787Z,13.87
2019-04-05T19:22:27.742Z,12.53
2019-04-05T19:24:58.125Z,13.00
2019-04-05T19:27:28.144Z,13.00
2019-04-05T19:29:58.572Z,12.27
2019-04-05T19:50:17.514Z,12.23
2019-04-05T19:52:47.950Z,13.37
2019-04-05T19:55:18.552Z,12.20
2019-04-05T19:57:48.426Z,14.93
2019-04-05T20:00:19.271Z,13.53
2019-04-05T20:02:53.057Z,12.93
2019-04-05T20:05:23.719Z,14.10
2019-04-05T20:07:54.115Z,13.17
2019-04-05T20:10:23.968Z,13.63
2019-04-05T20:12:54.394Z,13.40
2019-04-05T20:15:24.952Z,13.63
2019-04-05T20:17:55.338Z,13.00
2019-04-05T20:20:25.572Z,13.50
2019-04-05T20:22:56.381Z,15.50
2019-04-05T20:25:26.324Z,14.07
2019-04-05T20:27:56.733Z,13.80
2019-04-05T20:30:27.121Z,13.60
2019-04-05T20:32:57.334Z,12.60
2019-04-05T20:35:27.842Z,12.93
2019-04-05T20:38:00.349Z,14.00
2019-04-05T20:40:30.242Z,13.80
2019-04-05T20:43:00.692Z,14.37
2019-04-05T20:45:30.599Z,13.97
2019-04-05T20:48:00.947Z,13.40
2019-04-05T20:50:31.555Z,12.83
2019-04-05T20:53:04.603Z,14.30
2019-04-05T20:55:38.939Z,13.03
2019-04-05T20:58:08.811Z,13.80
2019-04-05T21:00:38.710Z,13.63
2019-04-05T21:03:08.559Z,12.90
2019-04-05T21:05:38.484Z,14.87
2019-04-05T21:08:08.367Z,14.17
2019-04-05T21:10:38.221Z,14.33
2019-04-05T21:13:08.102Z,13.63
2019-04-05T21:15:38.137Z,14.80
2019-04-05T21:18:08.036Z,14.83
2019-04-05T21:20:37.929Z,13.53
2019-04-05T21:23:08.869Z,16.70
2019-04-05T21:25:38.816Z,14.07
2019-04-05T21:28:09.006Z,12.90
2019-04-05T21:30:38.962Z,12.70
2019-04-05T21:33:08.810Z,12.40
2019-04-05T21:35:41.555Z,11.50
2019-04-05T21:38:11.694Z,12.33
2019-04-05T21:40:41.902Z,13.97
2019-04-05T21:43:11.761Z,14.90
2019-04-05T21:45:41.893Z,12.70
2019-04-05T21:48:12.333Z,12.30
2019-04-05T21:50:42.586Z,12.50
2019-04-05T21:53:12.366Z,11.60
2019-04-05T21:55:43.010Z,11.73
2019-04-05T21:58:12.858Z,12.57
2019-04-05T22:03:47.451Z,11.37
2019-04-05T22:06:17.389Z,11.50
2019-04-05T22:08:47.321Z,10.93
2019-04-05T22:11:17.614Z,11.63
2019-04-05T22:13:47.773Z,10.57
2019-04-05T22:16:28.850Z,11.43
2019-04-05T22:18:59.676Z,11.50
2019-04-05T22:21:29.830Z,11.03
2019-04-05T22:24:00.521Z,11.70
2019-04-05T22:26:30.985Z,11.83
2019-04-05T22:29:01.079Z,9.87
2019-04-05T22:31:31.470Z,11.20
2019-04-05T22:34:01.575Z,11.17
2019-04-05T22:36:31.450Z,9.10
2019-04-05T22:39:01.638Z,11.17
2019-04-05T22:41:31.491Z,10.17
2019-04-05T22:44:01.682Z,11.50
2019-04-05T22:46:31.895Z,10.90
2019-04-05T22:49:02.360Z,10.40
2019-04-05T22:51:32.466Z,9.73
2019-04-05T22:54:02.327Z,10.83
2019-04-05T22:56:32.170Z,10.60
2019-04-05T22:59:02.312Z,11.10
2019-04-05T23:01:32.914Z,9.57
2019-04-05T23:04:03.350Z,9.33
2019-04-05T23:06:33.928Z,10.90
2019-04-05T23:09:06.427Z,10.10
2019-04-05T23:11:36.542Z,11.20
2019-04-05T23:14:06.378Z,9.90
2019-04-05T23:16:37.143Z,10.83
2019-04-05T23:19:07.552Z,11.70
2019-04-05T23:21:37.715Z,11.13
2019-04-05T23:24:07.901Z,11.60
2019-04-05T23:26:38.839Z,9.70
2019-04-05T23:29:09.229Z,9.60
2019-04-05T23:31:39.497Z,11.30
2019-04-05T23:34:09.670Z,9.37
2019-04-05T23:36:39.788Z,10.77
2019-04-05T23:39:09.907Z,9.50
2019-04-05T23:41:40.547Z,10.23
2019-04-05T23:44:10.634Z,9.60
2019-04-05T23:46:41.030Z,10.63
2019-04-05T23:49:11.405Z,10.60
2019-04-05T23:51:41.566Z,10.80
2019-04-05T23:54:12.439Z,10.43
2019-04-05T23:56:42.778Z,10.03
2019-04-05T23:59:12.622Z,10.57
